sensor_id;sensor_type;location;lat;lon;timestamp;temperature;humidity
64468;DHT22;50853;46.836;16.820;2024-03-08T00:02:06;11.00;77.30
64468;DHT22;50853;46.836;16.820;2024-03-08T00:04:32;11.00;77.00
64468;DHT22;50853;46.836;16.820;2024-03-08T00:06:58;11.00;77.20
64468;DHT22;50853;46.836;16.820;2024-03-08T00:09:24;11.00;77.20
64468;DHT22;50853;46.836;16.820;2024-03-08T00:11:50;11.00;77.20
64468;DHT22;50853;46.836;16.820;2024-03-08T00:14:17;11.00;77.20
64468;DHT22;50853;46.836;16.820;2024-03-08T00:16:43;11.00;77.20
64468;DHT22;50853;46.836;16.820;2024-03-08T00:19:09;11.00;77.30
64468;DHT22;50853;46.836;16.820;2024-03-08T00:21:35;11.00;77.40
64468;DHT22;50853;46.836;16.820;2024-03-08T00:24:01;11.00;77.10
64468;DHT22;50853;46.836;16.820;2024-03-08T00:26:27;11.00;77.00
64468;DHT22;50853;46.836;16.820;2024-03-08T00:28:56;11.00;77.10
64468;DHT22;50853;46.836;16.820;2024-03-08T00:31:22;11.00;77.40
64468;DHT22;50853;46.836;16.820;2024-03-08T00:33:47;11.00;77.30
64468;DHT22;50853;46.836;16.820;2024-03-08T00:36:13;11.00;77.30
64468;DHT22;50853;46.836;16.820;2024-03-08T00:38:39;10.90;77.20
64468;DHT22;50853;46.836;16.820;2024-03-08T00:41:05;10.90;77.30
64468;DHT22;50853;46.836;16.820;2024-03-08T00:43:31;10.90;76.90
64468;DHT22;50853;46.836;16.820;2024-03-08T00:45:56;11.00;77.30
64468;DHT22;50853;46.836;16.820;2024-03-08T00:48:23;10.90;77.10
64468;DHT22;50853;46.836;16.820;2024-03-08T00:50:49;10.90;77.20
64468;DHT22;50853;46.836;16.820;2024-03-08T00:53:15;10.90;77.00
64468;DHT22;50853;46.836;16.820;2024-03-08T00:55:42;10.90;77.20
64468;DHT22;50853;46.836;16.820;2024-03-08T00:58:08;10.90;77.30
64468;DHT22;50853;46.836;16.820;2024-03-08T01:00:35;10.90;77.30
64468;DHT22;50853;46.836;16.820;2024-03-08T01:03:00;10.90;77.20
64468;DHT22;50853;46.836;16.820;2024-03-08T01:05:26;10.90;77.10
64468;DHT22;50853;46.836;16.820;2024-03-08T01:07:52;10.90;77.20
64468;DHT22;50853;46.836;16.820;2024-03-08T01:10:18;10.90;77.30
64468;DHT22;50853;46.836;16.820;2024-03-08T01:12:44;10.90;77.20
64468;DHT22;50853;46.836;16.820;2024-03-08T01:15:11;10.90;77.20
64468;DHT22;50853;46.836;16.820;2024-03-08T01:17:37;10.90;77.30
64468;DHT22;50853;46.836;16.820;2024-03-08T01:20:04;10.90;77.40
64468;DHT22;50853;46.836;16.820;2024-03-08T01:22:30;10.90;77.20
64468;DHT22;50853;46.836;16.820;2024-03-08T01:24:56;10.90;77.20
64468;DHT22;50853;46.836;16.820;2024-03-08T01:27:22;10.90;77.20
64468;DHT22;50853;46.836;16.820;2024-03-08T01:29:50;10.90;78.10
64468;DHT22;50853;46.836;16.820;2024-03-08T01:32:16;10.90;77.30
64468;DHT22;50853;46.836;16.820;2024-03-08T01:34:42;10.90;77.20
64468;DHT22;50853;46.836;16.820;2024-03-08T01:37:10;10.90;77.30
64468;DHT22;50853;46.836;16.820;2024-03-08T01:39:36;10.90;77.60
64468;DHT22;50853;46.836;16.820;2024-03-08T01:42:02;10.90;77.60
64468;DHT22;50853;46.836;16.820;2024-03-08T01:44:28;10.90;77.40
64468;DHT22;50853;46.836;16.820;2024-03-08T01:46:53;10.90;77.10
64468;DHT22;50853;46.836;16.820;2024-03-08T01:49:21;10.90;77.70
64468;DHT22;50853;46.836;16.820;2024-03-08T01:51:49;10.90;77.30
64468;DHT22;50853;46.836;16.820;2024-03-08T01:54:17;10.90;77.40
64468;DHT22;50853;46.836;16.820;2024-03-08T01:56:46;10.90;77.40
64468;DHT22;50853;46.836;16.820;2024-03-08T01:59:12;10.80;77.50
64468;DHT22;50853;46.836;16.820;2024-03-08T02:01:40;10.90;77.40
64468;DHT22;50853;46.836;16.820;2024-03-08T02:04:06;10.90;77.70
64468;DHT22;50853;46.836;16.820;2024-03-08T02:06:32;10.90;77.40
64468;DHT22;50853;46.836;16.820;2024-03-08T02:08:58;10.90;77.80
64468;DHT22;50853;46.836;16.820;2024-03-08T02:11:25;10.80;77.50
64468;DHT22;50853;46.836;16.820;2024-03-08T02:13:50;10.80;77.60
64468;DHT22;50853;46.836;16.820;2024-03-08T02:16:22;10.90;77.60
64468;DHT22;50853;46.836;16.820;2024-03-08T02:18:48;10.90;77.50
64468;DHT22;50853;46.836;16.820;2024-03-08T02:21:17;10.90;77.50
64468;DHT22;50853;46.836;16.820;2024-03-08T02:23:44;10.90;77.30
64468;DHT22;50853;46.836;16.820;2024-03-08T02:26:10;10.80;77.40
64468;DHT22;50853;46.836;16.820;2024-03-08T02:28:36;10.90;77.50
64468;DHT22;50853;46.836;16.820;2024-03-08T02:31:02;10.90;77.40
64468;DHT22;50853;46.836;16.820;2024-03-08T02:33:28;10.80;77.30
64468;DHT22;50853;46.836;16.820;2024-03-08T02:35:54;10.80;77.40
64468;DHT22;50853;46.836;16.820;2024-03-08T02:38:22;10.80;77.10
64468;DHT22;50853;46.836;16.820;2024-03-08T02:40:51;10.80;77.60
64468;DHT22;50853;46.836;16.820;2024-03-08T02:43:19;10.80;76.90
64468;DHT22;50853;46.836;16.820;2024-03-08T02:45:45;10.80;77.70
64468;DHT22;50853;46.836;16.820;2024-03-08T02:48:12;10.80;77.10
64468;DHT22;50853;46.836;16.820;2024-03-08T02:50:39;10.80;77.40
64468;DHT22;50853;46.836;16.820;2024-03-08T02:53:11;10.80;77.10
64468;DHT22;50853;46.836;16.820;2024-03-08T02:55:41;10.80;77.00
64468;DHT22;50853;46.836;16.820;2024-03-08T02:58:07;10.80;77.30
64468;DHT22;50853;46.836;16.820;2024-03-08T03:00:38;10.80;77.10
64468;DHT22;50853;46.836;16.820;2024-03-08T03:03:07;10.80;77.00
64468;DHT22;50853;46.836;16.820;2024-03-08T03:05:33;10.80;77.60
64468;DHT22;50853;46.836;16.820;2024-03-08T03:07:59;10.80;76.90
64468;DHT22;50853;46.836;16.820;2024-03-08T03:10:25;10.80;77.20
64468;DHT22;50853;46.836;16.820;2024-03-08T03:12:51;10.80;77.20
64468;DHT22;50853;46.836;16.820;2024-03-08T03:15:18;10.80;77.00
64468;DHT22;50853;46.836;16.820;2024-03-08T03:17:48;10.80;77.00
64468;DHT22;50853;46.836;16.820;2024-03-08T03:20:14;10.80;77.50
64468;DHT22;50853;46.836;16.820;2024-03-08T03:22:48;10.80;77.70
64468;DHT22;50853;46.836;16.820;2024-03-08T03:25:21;10.80;77.00
64468;DHT22;50853;46.836;16.820;2024-03-08T03:27:52;10.80;77.40
64468;DHT22;50853;46.836;16.820;2024-03-08T03:30:18;10.80;77.30
64468;DHT22;50853;46.836;16.820;2024-03-08T03:32:50;10.80;77.40
64468;DHT22;50853;46.836;16.820;2024-03-08T03:35:17;10.80;77.60
64468;DHT22;50853;46.836;16.820;2024-03-08T03:37:44;10.80;77.40
64468;DHT22;50853;46.836;16.820;2024-03-08T03:40:17;10.80;77.30
64468;DHT22;50853;46.836;16.820;2024-03-08T03:42:46;10.80;77.40
64468;DHT22;50853;46.836;16.820;2024-03-08T03:45:12;10.80;76.80
64468;DHT22;50853;46.836;16.820;2024-03-08T03:47:42;10.80;77.40
64468;DHT22;50853;46.836;16.820;2024-03-08T03:50:08;10.80;77.10
64468;DHT22;50853;46.836;16.820;2024-03-08T03:52:35;10.80;76.90
64468;DHT22;50853;46.836;16.820;2024-03-08T03:55:01;10.70;77.10
64468;DHT22;50853;46.836;16.820;2024-03-08T03:57:27;10.80;77.20
64468;DHT22;50853;46.836;16.820;2024-03-08T03:59:52;10.70;77.20
64468;DHT22;50853;46.836;16.820;2024-03-08T04:02:18;10.70;77.00
64468;DHT22;50853;46.836;16.820;2024-03-08T04:04:47;10.70;77.00
64468;DHT22;50853;46.836;16.820;2024-03-08T04:07:13;10.70;77.10
64468;DHT22;50853;46.836;16.820;2024-03-08T04:09:39;10.70;76.80
64468;DHT22;50853;46.836;16.820;2024-03-08T04:12:05;10.70;77.20
64468;DHT22;50853;46.836;16.820;2024-03-08T04:14:31;10.70;76.90
64468;DHT22;50853;46.836;16.820;2024-03-08T04:16:56;10.70;76.90
64468;DHT22;50853;46.836;16.820;2024-03-08T04:19:22;10.70;76.60
64468;DHT22;50853;46.836;16.820;2024-03-08T04:21:49;10.70;76.70
64468;DHT22;50853;46.836;16.820;2024-03-08T04:24:15;10.70;76.60
64468;DHT22;50853;46.836;16.820;2024-03-08T04:26:42;10.70;76.80
64468;DHT22;50853;46.836;16.820;2024-03-08T04:29:09;10.70;76.80
64468;DHT22;50853;46.836;16.820;2024-03-08T04:31:34;10.70;76.50
64468;DHT22;50853;46.836;16.820;2024-03-08T04:34:00;10.70;76.40
64468;DHT22;50853;46.836;16.820;2024-03-08T04:36:26;10.70;76.80
64468;DHT22;50853;46.836;16.820;2024-03-08T04:38:52;10.70;76.80
64468;DHT22;50853;46.836;16.820;2024-03-08T04:41:18;10.70;76.80
64468;DHT22;50853;46.836;16.820;2024-03-08T04:43:44;10.60;77.10
64468;DHT22;50853;46.836;16.820;2024-03-08T04:46:10;10.60;76.70
64468;DHT22;50853;46.836;16.820;2024-03-08T04:48:35;10.60;76.40
64468;DHT22;50853;46.836;16.820;2024-03-08T04:51:03;10.70;76.70
64468;DHT22;50853;46.836;16.820;2024-03-08T04:53:29;10.60;76.60
64468;DHT22;50853;46.836;16.820;2024-03-08T04:55:57;10.60;76.90
64468;DHT22;50853;46.836;16.820;2024-03-08T04:58:23;10.70;76.80
64468;DHT22;50853;46.836;16.820;2024-03-08T05:00:49;10.60;77.00
64468;DHT22;50853;46.836;16.820;2024-03-08T05:03:16;10.60;76.90
64468;DHT22;50853;46.836;16.820;2024-03-08T05:05:42;10.60;76.90
64468;DHT22;50853;46.836;16.820;2024-03-08T05:08:08;10.60;76.70
64468;DHT22;50853;46.836;16.820;2024-03-08T05:10:34;10.60;77.00
64468;DHT22;50853;46.836;16.820;2024-03-08T05:12:59;10.60;77.50
64468;DHT22;50853;46.836;16.820;2024-03-08T05:15:25;10.60;76.50
64468;DHT22;50853;46.836;16.820;2024-03-08T05:17:51;10.60;76.80
64468;DHT22;50853;46.836;16.820;2024-03-08T05:20:17;10.60;76.90
64468;DHT22;50853;46.836;16.820;2024-03-08T05:22:44;10.60;76.70
64468;DHT22;50853;46.836;16.820;2024-03-08T05:25:10;10.60;76.80
64468;DHT22;50853;46.836;16.820;2024-03-08T05:27:37;10.60;76.70
64468;DHT22;50853;46.836;16.820;2024-03-08T05:30:04;10.60;76.90
64468;DHT22;50853;46.836;16.820;2024-03-08T05:32:30;10.60;76.80
64468;DHT22;50853;46.836;16.820;2024-03-08T05:34:56;10.60;76.90
64468;DHT22;50853;46.836;16.820;2024-03-08T05:37:22;10.60;76.60
64468;DHT22;50853;46.836;16.820;2024-03-08T05:39:47;10.60;76.70
64468;DHT22;50853;46.836;16.820;2024-03-08T05:42:13;10.60;76.80
64468;DHT22;50853;46.836;16.820;2024-03-08T05:44:39;10.60;76.80
64468;DHT22;50853;46.836;16.820;2024-03-08T05:47:06;10.60;76.90
64468;DHT22;50853;46.836;16.820;2024-03-08T05:49:32;10.60;76.60
64468;DHT22;50853;46.836;16.820;2024-03-08T05:51:59;10.60;76.40
64468;DHT22;50853;46.836;16.820;2024-03-08T05:54:25;10.60;76.50
64468;DHT22;50853;46.836;16.820;2024-03-08T05:56:52;10.50;76.80
64468;DHT22;50853;46.836;16.820;2024-03-08T05:59:20;10.60;76.90
64468;DHT22;50853;46.836;16.820;2024-03-08T06:01:45;10.60;76.90
64468;DHT22;50853;46.836;16.820;2024-03-08T06:04:12;10.60;76.70
64468;DHT22;50853;46.836;16.820;2024-03-08T06:06:40;10.60;76.80
64468;DHT22;50853;46.836;16.820;2024-03-08T06:09:05;10.60;76.60
64468;DHT22;50853;46.836;16.820;2024-03-08T06:11:37;10.60;76.90
64468;DHT22;50853;46.836;16.820;2024-03-08T06:14:03;10.50;76.60
64468;DHT22;50853;46.836;16.820;2024-03-08T06:16:29;10.60;76.80
64468;DHT22;50853;46.836;16.820;2024-03-08T06:18:58;10.60;76.80
64468;DHT22;50853;46.836;16.820;2024-03-08T06:21:24;10.60;76.80
64468;DHT22;50853;46.836;16.820;2024-03-08T06:23:53;10.60;76.80
64468;DHT22;50853;46.836;16.820;2024-03-08T06:26:26;10.60;76.70
64468;DHT22;50853;46.836;16.820;2024-03-08T06:28:54;10.50;76.60
64468;DHT22;50853;46.836;16.820;2024-03-08T06:31:20;10.50;76.50
64468;DHT22;50853;46.836;16.820;2024-03-08T06:33:46;10.50;76.60
64468;DHT22;50853;46.836;16.820;2024-03-08T06:36:16;10.60;76.40
64468;DHT22;50853;46.836;16.820;2024-03-08T06:38:46;10.50;76.20
64468;DHT22;50853;46.836;16.820;2024-03-08T06:41:12;10.50;76.60
64468;DHT22;50853;46.836;16.820;2024-03-08T06:43:45;10.50;76.60
64468;DHT22;50853;46.836;16.820;2024-03-08T06:46:11;10.50;76.60
64468;DHT22;50853;46.836;16.820;2024-03-08T06:48:39;10.50;76.50
64468;DHT22;50853;46.836;16.820;2024-03-08T06:51:05;10.50;76.60
64468;DHT22;50853;46.836;16.820;2024-03-08T06:53:32;10.50;76.80
64468;DHT22;50853;46.836;16.820;2024-03-08T06:55:58;10.50;76.50
64468;DHT22;50853;46.836;16.820;2024-03-08T06:58:24;10.50;76.60
64468;DHT22;50853;46.836;16.820;2024-03-08T07:00:50;10.50;76.50
64468;DHT22;50853;46.836;16.820;2024-03-08T07:03:19;10.50;76.50
64468;DHT22;50853;46.836;16.820;2024-03-08T07:05:45;10.50;76.30
64468;DHT22;50853;46.836;16.820;2024-03-08T07:08:11;10.50;76.50
64468;DHT22;50853;46.836;16.820;2024-03-08T07:10:41;10.50;76.20
64468;DHT22;50853;46.836;16.820;2024-03-08T07:13:08;10.50;76.50
64468;DHT22;50853;46.836;16.820;2024-03-08T07:15:34;10.50;76.60
64468;DHT22;50853;46.836;16.820;2024-03-08T07:18:01;10.50;76.60
64468;DHT22;50853;46.836;16.820;2024-03-08T07:20:27;10.50;76.00
64468;DHT22;50853;46.836;16.820;2024-03-08T07:22:54;10.50;76.60
64468;DHT22;50853;46.836;16.820;2024-03-08T07:25:20;10.50;76.50
64468;DHT22;50853;46.836;16.820;2024-03-08T07:27:51;10.50;76.50
64468;DHT22;50853;46.836;16.820;2024-03-08T07:30:25;10.50;76.60
64468;DHT22;50853;46.836;16.820;2024-03-08T07:33:10;10.50;76.50
64468;DHT22;50853;46.836;16.820;2024-03-08T07:35:40;10.50;76.50
64468;DHT22;50853;46.836;16.820;2024-03-08T07:38:07;10.50;76.70
64468;DHT22;50853;46.836;16.820;2024-03-08T07:40:40;10.50;76.20
64468;DHT22;50853;46.836;16.820;2024-03-08T07:43:10;10.50;76.50
64468;DHT22;50853;46.836;16.820;2024-03-08T07:45:39;10.50;76.60
64468;DHT22;50853;46.836;16.820;2024-03-08T07:48:06;10.50;76.70
64468;DHT22;50853;46.836;16.820;2024-03-08T07:50:39;10.50;76.70
64468;DHT22;50853;46.836;16.820;2024-03-08T07:53:06;10.50;76.60
64468;DHT22;50853;46.836;16.820;2024-03-08T07:55:35;10.50;76.60
64468;DHT22;50853;46.836;16.820;2024-03-08T07:58:02;10.50;77.20
64468;DHT22;50853;46.836;16.820;2024-03-08T08:00:29;10.50;76.60
64468;DHT22;50853;46.836;16.820;2024-03-08T08:02:56;10.50;76.50
64468;DHT22;50853;46.836;16.820;2024-03-08T08:05:23;10.50;76.50
64468;DHT22;50853;46.836;16.820;2024-03-08T08:07:49;10.50;76.70
64468;DHT22;50853;46.836;16.820;2024-03-08T08:10:16;10.50;76.70
64468;DHT22;50853;46.836;16.820;2024-03-08T08:12:50;10.50;76.50
64468;DHT22;50853;46.836;16.820;2024-03-08T08:15:17;10.50;76.50
64468;DHT22;50853;46.836;16.820;2024-03-08T08:17:44;10.50;76.60
64468;DHT22;50853;46.836;16.820;2024-03-08T08:20:11;10.50;76.90
64468;DHT22;50853;46.836;16.820;2024-03-08T08:22:39;10.50;76.60
64468;DHT22;50853;46.836;16.820;2024-03-08T08:25:07;10.50;76.60
64468;DHT22;50853;46.836;16.820;2024-03-08T08:27:33;10.50;76.70
64468;DHT22;50853;46.836;16.820;2024-03-08T08:29:59;10.50;76.60
64468;DHT22;50853;46.836;16.820;2024-03-08T08:32:25;10.50;76.10
64468;DHT22;50853;46.836;16.820;2024-03-08T08:34:50;10.50;76.30
64468;DHT22;50853;46.836;16.820;2024-03-08T08:37:17;10.50;76.00
64468;DHT22;50853;46.836;16.820;2024-03-08T08:39:43;10.50;76.50
64468;DHT22;50853;46.836;16.820;2024-03-08T08:42:08;10.50;76.20
64468;DHT22;50853;46.836;16.820;2024-03-08T08:44:35;10.50;76.00
64468;DHT22;50853;46.836;16.820;2024-03-08T08:47:01;10.50;76.40
64468;DHT22;50853;46.836;16.820;2024-03-08T08:49:29;10.50;75.70
64468;DHT22;50853;46.836;16.820;2024-03-08T08:51:56;10.50;76.30
64468;DHT22;50853;46.836;16.820;2024-03-08T08:54:24;10.50;75.90
64468;DHT22;50853;46.836;16.820;2024-03-08T08:56:51;10.50;75.80
64468;DHT22;50853;46.836;16.820;2024-03-08T08:59:17;10.50;76.20
64468;DHT22;50853;46.836;16.820;2024-03-08T09:01:46;10.50;76.10
64468;DHT22;50853;46.836;16.820;2024-03-08T09:04:16;10.50;76.90
64468;DHT22;50853;46.836;16.820;2024-03-08T09:06:42;10.50;76.20
64468;DHT22;50853;46.836;16.820;2024-03-08T09:09:08;10.50;76.40
64468;DHT22;50853;46.836;16.820;2024-03-08T09:11:39;10.50;76.40
64468;DHT22;50853;46.836;16.820;2024-03-08T09:14:07;10.50;76.60
64468;DHT22;50853;46.836;16.820;2024-03-08T09:16:34;10.50;76.30
64468;DHT22;50853;46.836;16.820;2024-03-08T09:19:00;10.50;76.70
64468;DHT22;50853;46.836;16.820;2024-03-08T09:21:26;10.50;77.00
64468;DHT22;50853;46.836;16.820;2024-03-08T09:23:53;10.40;76.80
64468;DHT22;50853;46.836;16.820;2024-03-08T09:26:19;10.50;77.00
64468;DHT22;50853;46.836;16.820;2024-03-08T09:28:45;10.50;77.10
64468;DHT22;50853;46.836;16.820;2024-03-08T09:31:11;10.50;76.90
64468;DHT22;50853;46.836;16.820;2024-03-08T09:33:37;10.50;77.10
64468;DHT22;50853;46.836;16.820;2024-03-08T09:36:08;10.50;77.00
64468;DHT22;50853;46.836;16.820;2024-03-08T09:38:34;10.50;77.00
64468;DHT22;50853;46.836;16.820;2024-03-08T09:41:00;10.50;76.60
64468;DHT22;50853;46.836;16.820;2024-03-08T09:43:30;10.50;76.90
64468;DHT22;50853;46.836;16.820;2024-03-08T09:45:58;10.50;76.90
64468;DHT22;50853;46.836;16.820;2024-03-08T09:48:26;10.40;77.00
64468;DHT22;50853;46.836;16.820;2024-03-08T09:50:52;10.50;76.90
64468;DHT22;50853;46.836;16.820;2024-03-08T09:53:18;10.50;76.70
64468;DHT22;50853;46.836;16.820;2024-03-08T09:55:44;10.50;76.60
64468;DHT22;50853;46.836;16.820;2024-03-08T09:58:15;10.50;76.70
64468;DHT22;50853;46.836;16.820;2024-03-08T10:00:43;10.50;76.60
64468;DHT22;50853;46.836;16.820;2024-03-08T10:03:09;10.50;76.60
64468;DHT22;50853;46.836;16.820;2024-03-08T10:05:36;10.50;76.60
64468;DHT22;50853;46.836;16.820;2024-03-08T10:08:02;10.50;76.60
64468;DHT22;50853;46.836;16.820;2024-03-08T10:10:28;10.50;76.90
64468;DHT22;50853;46.836;16.820;2024-03-08T10:12:55;10.50;76.60
64468;DHT22;50853;46.836;16.820;2024-03-08T10:15:22;10.50;76.80
64468;DHT22;50853;46.836;16.820;2024-03-08T10:29:55;10.50;76.80
64468;DHT22;50853;46.836;16.820;2024-03-08T10:32:20;10.50;76.70
64468;DHT22;50853;46.836;16.820;2024-03-08T10:34:46;10.50;76.70
64468;DHT22;50853;46.836;16.820;2024-03-08T10:37:16;10.50;76.90
64468;DHT22;50853;46.836;16.820;2024-03-08T10:40:06;10.50;76.50
64468;DHT22;50853;46.836;16.820;2024-03-08T10:42:54;10.50;76.20
64468;DHT22;50853;46.836;16.820;2024-03-08T10:45:37;10.50;76.20
64468;DHT22;50853;46.836;16.820;2024-03-08T10:50:53;10.50;76.40
64468;DHT22;50853;46.836;16.820;2024-03-08T10:53:19;10.50;76.60
64468;DHT22;50853;46.836;16.820;2024-03-08T10:55:49;10.50;76.60
64468;DHT22;50853;46.836;16.820;2024-03-08T10:58:20;10.60;76.90
64468;DHT22;50853;46.836;16.820;2024-03-08T11:00:48;10.50;77.20
64468;DHT22;50853;46.836;16.820;2024-03-08T11:06:07;10.60;77.60
64468;DHT22;50853;46.836;16.820;2024-03-08T11:08:37;10.60;77.60
64468;DHT22;50853;46.836;16.820;2024-03-08T11:11:05;10.60;77.80
64468;DHT22;50853;46.836;16.820;2024-03-08T11:13:40;10.60;77.80
64468;DHT22;50853;46.836;16.820;2024-03-08T11:16:10;10.60;77.80
64468;DHT22;50853;46.836;16.820;2024-03-08T11:18:37;10.60;77.80
64468;DHT22;50853;46.836;16.820;2024-03-08T11:21:09;10.60;77.70
64468;DHT22;50853;46.836;16.820;2024-03-08T11:23:38;10.60;77.90
64468;DHT22;50853;46.836;16.820;2024-03-08T11:26:21;10.60;77.70
64468;DHT22;50853;46.836;16.820;2024-03-08T11:28:49;10.60;78.10
64468;DHT22;50853;46.836;16.820;2024-03-08T11:31:22;10.60;77.90
64468;DHT22;50853;46.836;16.820;2024-03-08T11:33:48;10.60;78.50
64468;DHT22;50853;46.836;16.820;2024-03-08T11:36:22;10.60;78.40
64468;DHT22;50853;46.836;16.820;2024-03-08T11:38:49;10.60;78.10
64468;DHT22;50853;46.836;16.820;2024-03-08T11:41:26;10.60;78.00
64468;DHT22;50853;46.836;16.820;2024-03-08T11:44:05;10.60;77.80
64468;DHT22;50853;46.836;16.820;2024-03-08T11:46:31;10.60;78.20
64468;DHT22;50853;46.836;16.820;2024-03-08T11:48:57;10.60;78.60
64468;DHT22;50853;46.836;16.820;2024-03-08T11:51:23;10.60;78.50
64468;DHT22;50853;46.836;16.820;2024-03-08T11:53:52;10.60;78.60
64468;DHT22;50853;46.836;16.820;2024-03-08T11:56:18;10.60;78.50
64468;DHT22;50853;46.836;16.820;2024-03-08T11:58:55;10.60;78.40
64468;DHT22;50853;46.836;16.820;2024-03-08T12:01:23;10.60;78.60
64468;DHT22;50853;46.836;16.820;2024-03-08T12:04:01;10.60;78.80
64468;DHT22;50853;46.836;16.820;2024-03-08T12:06:36;10.60;78.90
64468;DHT22;50853;46.836;16.820;2024-03-08T12:09:09;10.60;79.00
64468;DHT22;50853;46.836;16.820;2024-03-08T12:11:36;10.60;78.20
64468;DHT22;50853;46.836;16.820;2024-03-08T12:14:03;10.60;78.20
64468;DHT22;50853;46.836;16.820;2024-03-08T12:16:29;10.60;78.30
64468;DHT22;50853;46.836;16.820;2024-03-08T12:18:55;10.60;78.30
64468;DHT22;50853;46.836;16.820;2024-03-08T12:21:21;10.60;78.10
64468;DHT22;50853;46.836;16.820;2024-03-08T12:24:09;10.60;78.30
64468;DHT22;50853;46.836;16.820;2024-03-08T12:26:38;10.60;78.40
64468;DHT22;50853;46.836;16.820;2024-03-08T12:29:25;10.60;78.50
64468;DHT22;50853;46.836;16.820;2024-03-08T12:31:59;10.60;78.20
64468;DHT22;50853;46.836;16.820;2024-03-08T12:34:27;10.60;78.30
64468;DHT22;50853;46.836;16.820;2024-03-08T12:36:55;10.60;78.50
64468;DHT22;50853;46.836;16.820;2024-03-08T12:39:22;10.60;78.50
64468;DHT22;50853;46.836;16.820;2024-03-08T12:41:49;10.60;78.20
64468;DHT22;50853;46.836;16.820;2024-03-08T12:44:17;10.60;78.10
64468;DHT22;50853;46.836;16.820;2024-03-08T12:46:44;10.60;78.40
64468;DHT22;50853;46.836;16.820;2024-03-08T12:49:11;10.60;78.30
64468;DHT22;50853;46.836;16.820;2024-03-08T12:51:38;10.60;78.10
64468;DHT22;50853;46.836;16.820;2024-03-08T12:54:05;10.60;78.00
64468;DHT22;50853;46.836;16.820;2024-03-08T12:56:34;10.60;78.40
64468;DHT22;50853;46.836;16.820;2024-03-08T12:59:00;10.60;78.20
64468;DHT22;50853;46.836;16.820;2024-03-08T13:01:27;10.60;78.30
64468;DHT22;50853;46.836;16.820;2024-03-08T13:03:53;10.60;78.20
64468;DHT22;50853;46.836;16.820;2024-03-08T13:06:21;10.60;78.20
64468;DHT22;50853;46.836;16.820;2024-03-08T13:08:53;10.70;78.30
64468;DHT22;50853;46.836;16.820;2024-03-08T13:11:19;10.60;78.80
64468;DHT22;50853;46.836;16.820;2024-03-08T13:13:46;10.60;78.50
64468;DHT22;50853;46.836;16.820;2024-03-08T13:16:12;10.70;78.40
64468;DHT22;50853;46.836;16.820;2024-03-08T13:18:41;10.60;78.20
64468;DHT22;50853;46.836;16.820;2024-03-08T13:21:10;10.70;78.40
64468;DHT22;50853;46.836;16.820;2024-03-08T13:23:37;10.70;78.20
64468;DHT22;50853;46.836;16.820;2024-03-08T13:26:10;10.70;78.20
64468;DHT22;50853;46.836;16.820;2024-03-08T13:28:45;10.70;78.30
64468;DHT22;50853;46.836;16.820;2024-03-08T13:31:12;10.60;78.40
64468;DHT22;50853;46.836;16.820;2024-03-08T13:33:39;10.60;78.30
64468;DHT22;50853;46.836;16.820;2024-03-08T13:36:07;10.70;78.90
64468;DHT22;50853;46.836;16.820;2024-03-08T13:38:44;10.70;79.00
64468;DHT22;50853;46.836;16.820;2024-03-08T13:41:13;10.70;79.20
64468;DHT22;50853;46.836;16.820;2024-03-08T13:43:47;10.70;79.00
64468;DHT22;50853;46.836;16.820;2024-03-08T13:46:16;10.70;78.80
64468;DHT22;50853;46.836;16.820;2024-03-08T13:48:42;10.70;79.20
64468;DHT22;50853;46.836;16.820;2024-03-08T13:51:08;10.70;78.40
64468;DHT22;50853;46.836;16.820;2024-03-08T13:53:41;10.70;78.60
64468;DHT22;50853;46.836;16.820;2024-03-08T13:56:07;10.60;78.50
64468;DHT22;50853;46.836;16.820;2024-03-08T13:58:36;10.70;78.40
64468;DHT22;50853;46.836;16.820;2024-03-08T14:01:02;10.70;79.00
64468;DHT22;50853;46.836;16.820;2024-03-08T14:03:31;10.70;79.20
64468;DHT22;50853;46.836;16.820;2024-03-08T14:05:58;10.70;79.20
64468;DHT22;50853;46.836;16.820;2024-03-08T14:08:24;10.70;79.00
64468;DHT22;50853;46.836;16.820;2024-03-08T14:10:52;10.70;79.20
64468;DHT22;50853;46.836;16.820;2024-03-08T14:13:19;10.70;79.90
64468;DHT22;50853;46.836;16.820;2024-03-08T14:15:45;10.70;79.40
64468;DHT22;50853;46.836;16.820;2024-03-08T14:18:11;10.70;79.30
64468;DHT22;50853;46.836;16.820;2024-03-08T14:20:39;10.70;79.20
64468;DHT22;50853;46.836;16.820;2024-03-08T14:23:05;10.70;79.40
64468;DHT22;50853;46.836;16.820;2024-03-08T14:25:33;10.70;79.40
64468;DHT22;50853;46.836;16.820;2024-03-08T14:27:59;10.70;79.30
64468;DHT22;50853;46.836;16.820;2024-03-08T14:30:33;10.70;79.30
64468;DHT22;50853;46.836;16.820;2024-03-08T14:33:07;10.70;79.40
64468;DHT22;50853;46.836;16.820;2024-03-08T14:35:35;10.70;79.50
64468;DHT22;50853;46.836;16.820;2024-03-08T14:38:02;10.70;79.50
64468;DHT22;50853;46.836;16.820;2024-03-08T14:40:28;10.70;79.50
64468;DHT22;50853;46.836;16.820;2024-03-08T14:42:56;10.70;79.50
64468;DHT22;50853;46.836;16.820;2024-03-08T14:45:22;10.70;79.50
64468;DHT22;50853;46.836;16.820;2024-03-08T14:47:50;10.70;79.40
64468;DHT22;50853;46.836;16.820;2024-03-08T14:50:20;10.70;79.40
64468;DHT22;50853;46.836;16.820;2024-03-08T14:52:51;10.70;79.40
64468;DHT22;50853;46.836;16.820;2024-03-08T14:55:21;10.80;79.20
64468;DHT22;50853;46.836;16.820;2024-03-08T14:57:51;10.80;79.30
64468;DHT22;50853;46.836;16.820;2024-03-08T15:00:18;10.70;79.30
64468;DHT22;50853;46.836;16.820;2024-03-08T15:02:59;10.70;79.40
64468;DHT22;50853;46.836;16.820;2024-03-08T15:05:25;10.70;79.50
64468;DHT22;50853;46.836;16.820;2024-03-08T15:07:58;10.70;79.40
64468;DHT22;50853;46.836;16.820;2024-03-08T15:10:28;10.80;79.60
64468;DHT22;50853;46.836;16.820;2024-03-08T15:12:56;10.80;79.60
64468;DHT22;50853;46.836;16.820;2024-03-08T15:15:24;10.70;79.40
64468;DHT22;50853;46.836;16.820;2024-03-08T15:17:50;10.80;79.50
64468;DHT22;50853;46.836;16.820;2024-03-08T15:20:17;10.70;79.50
64468;DHT22;50853;46.836;16.820;2024-03-08T15:22:50;10.70;79.60
64468;DHT22;50853;46.836;16.820;2024-03-08T15:25:16;10.70;79.70
64468;DHT22;50853;46.836;16.820;2024-03-08T15:28:02;10.80;79.70
64468;DHT22;50853;46.836;16.820;2024-03-08T15:30:31;10.70;79.70
64468;DHT22;50853;46.836;16.820;2024-03-08T15:32:59;10.80;79.80
64468;DHT22;50853;46.836;16.820;2024-03-08T15:35:28;10.80;79.70
64468;DHT22;50853;46.836;16.820;2024-03-08T15:37:54;10.70;79.70